createdAt,value
2022-08-26T00:02:12.953Z,22.97
2022-08-26T00:04:41.197Z,22.93
2022-08-26T00:07:09.319Z,22.90
2022-08-26T00:09:40.268Z,22.81
2022-08-26T00:12:09.452Z,22.75
2022-08-26T00:14:40.939Z,22.72
2022-08-26T00:17:09.272Z,22.72
2022-08-26T00:19:38.671Z,22.71
2022-08-26T00:22:07.185Z,22.67
2022-08-26T00:24:35.170Z,22.67
2022-08-26T00:27:03.402Z,22.62
2022-08-26T00:29:35.466Z,22.59
2022-08-26T00:32:06.102Z,22.59
2022-08-26T00:34:34.228Z,22.56
2022-08-26T00:37:03.618Z,22.58
2022-08-26T00:39:31.779Z,22.55
2022-08-26T00:42:00.640Z,22.55
2022-08-26T00:44:30.237Z,22.55
2022-08-26T00:47:02.746Z,22.53
2022-08-26T00:49:37.805Z,22.52
2022-08-26T00:52:12.105Z,22.48
2022-08-26T00:54:46.779Z,22.45
2022-08-26T00:57:17.095Z,22.45
2022-08-26T00:59:46.921Z,22.44
2022-08-26T01:02:20.705Z,22.40
2022-08-26T01:04:55.808Z,22.32
2022-08-26T01:07:27.540Z,22.30
2022-08-26T01:09:59.683Z,22.29
2022-08-26T01:12:29.786Z,22.25
2022-08-26T01:14:57.637Z,22.26
2022-08-26T01:17:25.966Z,22.21
2022-08-26T01:20:01.263Z,22.23
2022-08-26T01:22:33.088Z,22.22
2022-08-26T01:25:03.614Z,22.20
2022-08-26T01:27:32.952Z,22.16
2022-08-26T01:30:02.441Z,22.13
2022-08-26T01:32:31.545Z,22.14
2022-08-26T01:35:00.014Z,22.11
2022-08-26T01:37:33.041Z,22.11
2022-08-26T01:40:02.718Z,22.09
2022-08-26T01:42:30.861Z,22.08
2022-08-26T01:45:02.809Z,22.08
2022-08-26T01:47:33.128Z,22.00
2022-08-26T01:50:03.574Z,21.89
2022-08-26T01:52:34.595Z,21.84
2022-08-26T01:55:04.677Z,21.79
2022-08-26T01:57:32.972Z,21.73
2022-08-26T02:00:04.098Z,21.72
2022-08-26T02:05:03.041Z,21.64
2022-08-26T02:07:31.572Z,21.61
2022-08-26T02:10:03.402Z,21.59
2022-08-26T02:12:32.277Z,21.53
2022-08-26T02:15:02.636Z,21.53
2022-08-26T02:17:36.287Z,21.53
2022-08-26T02:20:13.096Z,21.52
2022-08-26T02:22:45.235Z,21.50
2022-08-26T02:25:19.668Z,21.47
2022-08-26T02:27:48.355Z,21.46
2022-08-26T02:30:19.283Z,21.43
2022-08-26T02:32:49.557Z,21.38
2022-08-26T02:35:20.168Z,21.41
2022-08-26T02:37:49.365Z,21.43
2022-08-26T02:40:21.967Z,21.48
2022-08-26T02:42:50.425Z,21.48
2022-08-26T02:45:23.284Z,21.46
2022-08-26T02:47:53.198Z,21.47
2022-08-26T02:50:22.287Z,21.44
2022-08-26T02:52:50.416Z,21.42
2022-08-26T02:55:20.467Z,21.36
2022-08-26T02:57:48.292Z,21.31
2022-08-26T03:00:17.329Z,21.19
2022-08-26T03:02:45.583Z,21.11
2022-08-26T03:05:14.071Z,21.10
2022-08-26T03:07:43.845Z,21.10
2022-08-26T03:10:13.797Z,21.12
2022-08-26T03:12:47.352Z,21.13
2022-08-26T03:15:18.396Z,21.11
2022-08-26T03:17:47.239Z,21.11
2022-08-26T03:20:15.783Z,21.12
2022-08-26T03:22:46.039Z,21.07
2022-08-26T03:25:15.966Z,20.99
2022-08-26T03:27:45.213Z,20.98
2022-08-26T03:30:32.242Z,20.98
2022-08-26T03:33:01.129Z,20.99
2022-08-26T03:35:29.310Z,21.00
2022-08-26T03:37:57.468Z,21.03
2022-08-26T03:40:26.083Z,21.05
2022-08-26T03:42:59.212Z,21.01
2022-08-26T03:45:28.354Z,20.99
2022-08-26T03:47:57.799Z,20.96
2022-08-26T03:50:26.972Z,20.89
2022-08-26T03:52:55.826Z,20.84
2022-08-26T03:55:25.616Z,20.78
2022-08-26T03:57:55.404Z,20.76
2022-08-26T04:00:24.764Z,20.75
2022-08-26T04:02:53.624Z,20.77
2022-08-26T04:05:23.056Z,20.78
2022-08-26T04:07:51.633Z,20.78
2022-08-26T04:10:28.971Z,20.76
2022-08-26T04:13:06.185Z,20.76
2022-08-26T04:15:35.984Z,20.74
2022-08-26T04:18:04.249Z,20.73
2022-08-26T04:20:32.149Z,20.74
2022-08-26T04:23:00.623Z,20.73
2022-08-26T04:25:28.541Z,20.72
2022-08-26T04:27:56.385Z,20.62
2022-08-26T04:30:25.557Z,20.47
2022-08-26T04:32:54.836Z,20.43
2022-08-26T04:35:25.926Z,20.40
2022-08-26T04:37:55.518Z,20.37
2022-08-26T04:40:23.711Z,20.42
2022-08-26T04:42:51.669Z,20.43
2022-08-26T04:45:22.806Z,20.44
2022-08-26T04:47:56.458Z,20.44
2022-08-26T04:50:26.597Z,20.49
2022-08-26T04:52:55.341Z,20.44
2022-08-26T04:55:25.335Z,20.39
2022-08-26T04:58:08.841Z,20.38
2022-08-26T05:00:38.915Z,20.39
2022-08-26T05:03:10.556Z,20.39
2022-08-26T05:05:40.925Z,20.41
2022-08-26T05:08:09.233Z,20.46
2022-08-26T05:10:41.272Z,20.55
2022-08-26T05:13:10.972Z,20.60
2022-08-26T05:15:40.009Z,20.69
2022-08-26T05:18:11.300Z,20.76
2022-08-26T05:20:41.242Z,20.85
2022-08-26T05:23:09.455Z,20.93
2022-08-26T05:25:39.028Z,20.91
2022-08-26T05:28:07.770Z,20.82
2022-08-26T05:30:35.815Z,20.77
2022-08-26T05:33:04.178Z,20.67
2022-08-26T05:35:34.265Z,20.69
2022-08-26T05:38:08.259Z,20.69
2022-08-26T05:40:41.995Z,20.71
2022-08-26T05:43:13.530Z,20.76
2022-08-26T05:45:46.261Z,20.80
2022-08-26T05:48:16.100Z,20.85
2022-08-26T05:50:50.911Z,20.87
2022-08-26T05:53:24.015Z,20.90
2022-08-26T05:55:55.276Z,21.00
2022-08-26T05:58:24.579Z,20.95
2022-08-26T06:00:59.960Z,21.08
2022-08-26T06:03:30.461Z,21.14
2022-08-26T06:06:06.242Z,21.24
2022-08-26T06:08:35.868Z,21.35
2022-08-26T06:11:06.664Z,21.44
2022-08-26T06:13:36.543Z,21.46
2022-08-26T06:16:07.370Z,21.55
2022-08-26T06:18:44.333Z,21.63
2022-08-26T06:21:17.855Z,21.78
2022-08-26T06:24:04.475Z,21.88
2022-08-26T06:26:33.552Z,22.00
2022-08-26T06:29:01.979Z,22.08
2022-08-26T06:31:33.612Z,22.20
2022-08-26T06:34:03.150Z,22.25
2022-08-26T06:36:39.465Z,22.28
2022-08-26T06:39:09.563Z,22.29
2022-08-26T06:41:43.179Z,22.30
2022-08-26T06:44:12.368Z,22.40
2022-08-26T06:46:41.237Z,22.53
2022-08-26T06:49:09.486Z,22.63
2022-08-26T06:51:40.960Z,22.76
2022-08-26T06:54:09.633Z,22.91
2022-08-26T06:56:40.258Z,23.01
2022-08-26T06:59:12.506Z,23.15
2022-08-26T07:01:44.822Z,23.27
2022-08-26T07:04:15.745Z,23.40
2022-08-26T07:06:52.418Z,23.53
2022-08-26T07:09:23.740Z,23.69
2022-08-26T07:11:56.176Z,23.79
2022-08-26T07:14:26.257Z,23.94
2022-08-26T07:16:54.826Z,24.16
2022-08-26T07:19:31.092Z,24.29
2022-08-26T07:22:03.247Z,24.43
2022-08-26T07:24:32.502Z,24.56
2022-08-26T07:27:01.857Z,24.74
2022-08-26T07:29:31.064Z,24.84
2022-08-26T07:31:59.221Z,24.95
2022-08-26T07:34:27.963Z,25.11
2022-08-26T07:36:57.059Z,25.24
2022-08-26T07:39:27.561Z,25.48
2022-08-26T07:41:56.152Z,25.63
2022-08-26T07:44:27.298Z,25.74
2022-08-26T07:47:00.084Z,25.96
2022-08-26T07:49:31.483Z,26.21
2022-08-26T07:51:59.763Z,26.37
2022-08-26T07:54:30.179Z,26.48
2022-08-26T07:57:00.956Z,26.52
2022-08-26T07:59:39.930Z,26.64
2022-08-26T08:02:11.222Z,26.84
2022-08-26T08:04:39.288Z,26.99
2022-08-26T08:07:07.680Z,27.10
2022-08-26T08:09:58.136Z,27.13
2022-08-26T08:12:32.729Z,27.24
2022-08-26T08:15:02.434Z,27.28
2022-08-26T08:17:31.726Z,27.34
2022-08-26T08:19:59.821Z,27.53
2022-08-26T08:22:27.797Z,27.77
2022-08-26T08:24:58.076Z,27.85
2022-08-26T08:27:27.814Z,28.00
2022-08-26T08:29:56.839Z,28.19
2022-08-26T08:32:24.919Z,28.36
2022-08-26T08:34:53.775Z,28.31
2022-08-26T08:37:21.795Z,28.38
2022-08-26T08:39:50.215Z,28.61
2022-08-26T08:45:23.790Z,28.94
2022-08-26T08:47:54.753Z,28.89
2022-08-26T08:50:27.080Z,28.99
2022-08-26T08:53:05.170Z,28.99
2022-08-26T08:55:43.446Z,28.95
2022-08-26T08:58:19.652Z,29.04
2022-08-26T09:00:51.732Z,29.03
2022-08-26T09:03:32.740Z,29.18
2022-08-26T09:06:01.895Z,29.23
2022-08-26T09:08:35.239Z,29.24
2022-08-26T09:11:04.437Z,29.27
2022-08-26T09:13:34.389Z,29.36
2022-08-26T09:16:08.342Z,29.57
2022-08-26T09:18:57.134Z,29.35
2022-08-26T09:21:29.935Z,29.13
2022-08-26T09:23:59.255Z,28.93
2022-08-26T09:26:30.880Z,28.92
2022-08-26T09:29:03.074Z,29.02
2022-08-26T09:31:33.046Z,29.18
2022-08-26T09:34:08.897Z,29.30
2022-08-26T09:36:41.405Z,29.50
2022-08-26T09:39:26.094Z,29.61
2022-08-26T09:42:05.799Z,29.47
2022-08-26T09:44:53.790Z,29.21
2022-08-26T09:47:25.317Z,29.07
2022-08-26T09:49:59.388Z,28.97
2022-08-26T09:52:27.962Z,28.82
2022-08-26T09:55:04.649Z,28.76
2022-08-26T09:57:37.404Z,28.70
2022-08-26T10:00:25.547Z,28.58
2022-08-26T10:02:57.395Z,28.48
2022-08-26T10:05:38.592Z,28.09
2022-08-26T10:08:23.092Z,27.02
2022-08-26T10:10:53.343Z,26.30
2022-08-26T10:13:27.097Z,25.70
2022-08-26T10:16:10.743Z,25.42
2022-08-26T10:18:42.257Z,24.02
2022-08-26T10:21:14.312Z,23.05
2022-08-26T10:23:49.589Z,22.44
2022-08-26T10:26:20.977Z,22.04
2022-08-26T10:28:52.604Z,21.68
2022-08-26T10:31:47.851Z,21.68
2022-08-26T10:34:21.206Z,21.70
2022-08-26T10:37:14.151Z,21.71
2022-08-26T10:39:57.350Z,21.87
2022-08-26T10:42:33.263Z,21.89
2022-08-26T10:45:08.174Z,22.07
2022-08-26T10:47:47.539Z,22.23
2022-08-26T10:50:19.278Z,22.43
2022-08-26T10:52:58.162Z,22.65
2022-08-26T10:55:34.888Z,22.66
2022-08-26T10:58:11.601Z,22.72
2022-08-26T11:01:00.276Z,22.87
2022-08-26T11:03:34.584Z,22.85
2022-08-26T11:06:22.734Z,23.00
2022-08-26T11:08:51.449Z,23.16
2022-08-26T11:11:50.837Z,23.35
2022-08-26T11:14:41.105Z,23.55
2022-08-26T11:18:02.285Z,23.65
2022-08-26T11:20:37.320Z,23.75
2022-08-26T11:23:40.432Z,24.00
2022-08-26T11:26:20.383Z,24.19
2022-08-26T11:29:12.857Z,24.43
2022-08-26T11:31:57.263Z,24.73
2022-08-26T11:34:59.365Z,25.02
2022-08-26T11:37:35.019Z,25.39
2022-08-26T11:40:05.518Z,25.63
2022-08-26T11:42:43.113Z,25.93
2022-08-26T11:45:23.636Z,26.06
2022-08-26T11:47:51.914Z,25.96
2022-08-26T11:50:25.082Z,25.92
2022-08-26T11:53:02.355Z,25.83
2022-08-26T11:55:32.007Z,25.75
2022-08-26T11:58:01.960Z,25.66
2022-08-26T12:00:36.126Z,25.55
2022-08-26T12:03:09.723Z,25.47
2022-08-26T12:05:43.526Z,25.39
2022-08-26T12:08:18.104Z,25.41
2022-08-26T12:10:46.115Z,25.38
2022-08-26T12:13:22.066Z,25.42
2022-08-26T12:15:55.924Z,25.40
2022-08-26T12:18:29.158Z,25.43
2022-08-26T12:21:00.483Z,25.42
2022-08-26T12:23:38.826Z,25.38
2022-08-26T12:26:10.368Z,25.33
2022-08-26T12:28:44.852Z,25.28
2022-08-26T12:31:13.136Z,25.25
2022-08-26T12:33:45.552Z,25.25
2022-08-26T12:36:13.950Z,25.24
2022-08-26T12:38:45.541Z,25.26
2022-08-26T12:41:13.609Z,25.25
2022-08-26T12:43:43.949Z,25.25
2022-08-26T12:46:13.600Z,25.21
2022-08-26T12:48:44.061Z,25.18
2022-08-26T12:51:21.839Z,25.19
2022-08-26T12:53:53.945Z,25.20
2022-08-26T12:56:31.347Z,25.24
2022-08-26T12:59:11.142Z,25.26
2022-08-26T13:01:44.376Z,25.28
2022-08-26T13:04:38.591Z,25.27
2022-08-26T13:07:24.720Z,25.28
2022-08-26T13:09:55.985Z,25.27
2022-08-26T13:12:29.513Z,25.30
2022-08-26T13:15:01.510Z,25.35
2022-08-26T13:17:30.918Z,25.39
2022-08-26T13:20:04.207Z,25.42
2022-08-26T13:22:32.798Z,25.43
2022-08-26T13:25:03.698Z,25.46
2022-08-26T13:27:31.639Z,25.49
2022-08-26T13:30:00.380Z,25.52
2022-08-26T13:32:28.644Z,25.62
2022-08-26T13:34:57.925Z,25.64
2022-08-26T13:37:34.259Z,25.66
2022-08-26T13:40:09.093Z,25.71
2022-08-26T13:42:37.084Z,25.75
2022-08-26T13:45:17.757Z,25.80
2022-08-26T13:47:45.785Z,25.86
2022-08-26T13:50:13.690Z,25.96
2022-08-26T13:52:41.894Z,26.01
2022-08-26T13:55:11.949Z,26.11
2022-08-26T13:57:39.903Z,26.22
2022-08-26T14:00:11.127Z,26.36
2022-08-26T14:02:41.633Z,26.49
2022-08-26T14:05:10.566Z,26.64
2022-08-26T14:07:38.451Z,26.83
2022-08-26T14:10:07.791Z,27.08
2022-08-26T14:12:37.235Z,27.36
2022-08-26T14:15:06.249Z,27.67
2022-08-26T14:17:34.247Z,28.01
2022-08-26T14:20:24.254Z,28.34
2022-08-26T14:23:13.022Z,28.70
2022-08-26T14:25:42.108Z,28.90
2022-08-26T14:28:17.490Z,29.09
2022-08-26T14:30:50.096Z,29.18
2022-08-26T14:33:44.330Z,29.31
2022-08-26T14:36:41.533Z,29.35
2022-08-26T14:39:40.507Z,29.51
2022-08-26T14:42:34.045Z,29.51
2022-08-26T14:45:05.575Z,29.51
2022-08-26T14:47:56.406Z,29.41
2022-08-26T14:51:47.307Z,29.33
2022-08-26T14:54:16.223Z,29.27
2022-08-26T14:57:11.051Z,29.06
2022-08-26T14:59:41.801Z,28.85
2022-08-26T15:02:13.860Z,28.71
2022-08-26T15:04:56.906Z,28.55
2022-08-26T15:07:25.090Z,28.43
2022-08-26T15:09:53.292Z,28.27
2022-08-26T15:12:21.905Z,28.11
2022-08-26T15:14:49.730Z,28.01
2022-08-26T15:17:19.106Z,27.90
2022-08-26T15:19:47.491Z,27.83
2022-08-26T15:22:15.772Z,27.71
2022-08-26T15:24:43.649Z,27.60
2022-08-26T15:27:12.429Z,27.49
2022-08-26T15:29:40.541Z,27.40
2022-08-26T15:32:08.791Z,27.33
2022-08-26T15:34:38.345Z,27.27
2022-08-26T15:37:06.790Z,27.16
2022-08-26T15:39:35.448Z,27.09
2022-08-26T15:42:03.689Z,27.02
2022-08-26T15:44:32.010Z,26.97
2022-08-26T15:47:00.006Z,26.94
2022-08-26T15:49:28.722Z,26.83
2022-08-26T15:51:58.434Z,26.80
2022-08-26T15:54:26.604Z,26.73
2022-08-26T15:56:54.610Z,26.66
2022-08-26T15:59:23.646Z,26.58
2022-08-26T16:01:51.868Z,26.50
2022-08-26T16:04:20.307Z,26.47
2022-08-26T16:06:52.546Z,26.45
2022-08-26T16:09:24.349Z,26.37
2022-08-26T16:12:00.665Z,26.32
2022-08-26T16:14:28.739Z,26.28
2022-08-26T16:31:54.930Z,26.18
2022-08-26T16:34:24.589Z,25.92
2022-08-26T16:36:52.735Z,25.68
2022-08-26T16:43:09.249Z,25.11
2022-08-26T16:45:43.216Z,24.95
2022-08-26T16:48:11.720Z,24.74
2022-08-26T16:50:43.892Z,24.54
2022-08-26T16:55:42.633Z,24.37
2022-08-26T16:58:10.768Z,24.22
2022-08-26T17:00:39.269Z,24.18
2022-08-26T17:03:07.651Z,24.12
2022-08-26T17:05:36.476Z,24.04
2022-08-26T17:08:06.657Z,23.91
2022-08-26T17:10:37.892Z,23.88
2022-08-26T17:13:06.432Z,23.78
2022-08-26T17:15:34.522Z,23.82
2022-08-26T17:18:02.534Z,23.78
2022-08-26T17:20:30.615Z,23.69
2022-08-26T17:22:59.054Z,23.54
2022-08-26T17:25:34.383Z,23.47
2022-08-26T17:28:02.708Z,23.39
2022-08-26T17:30:35.968Z,23.38
2022-08-26T17:33:10.543Z,23.42
2022-08-26T17:35:41.839Z,23.36
2022-08-26T17:38:11.454Z,23.40
2022-08-26T17:40:40.940Z,23.40
2022-08-26T17:43:12.211Z,23.39
2022-08-26T17:46:06.849Z,23.42
2022-08-26T17:52:59.832Z,23.22
2022-08-26T17:55:48.018Z,23.20
2022-08-26T18:22:23.622Z,22.27
2022-08-26T18:31:04.319Z,21.98
2022-08-26T18:39:45.989Z,22.11
2022-08-26T18:45:48.450Z,22.15
2022-08-26T18:48:20.301Z,22.16
2022-08-26T18:50:49.384Z,22.21
2022-08-26T18:53:19.387Z,22.22
2022-08-26T18:55:47.934Z,22.17
2022-08-26T18:58:16.409Z,22.17
2022-08-26T19:00:44.240Z,22.23
2022-08-26T19:03:18.415Z,22.29
2022-08-26T19:05:46.945Z,22.34
2022-08-26T19:08:14.817Z,22.36
2022-08-26T19:10:44.069Z,22.35
2022-08-26T19:13:12.533Z,22.32
2022-08-26T19:15:40.956Z,22.24
2022-08-26T19:18:09.795Z,22.22
2022-08-26T19:20:41.533Z,22.17
2022-08-26T19:23:30.201Z,22.17
2022-08-26T19:26:04.603Z,22.13
2022-08-26T19:28:32.787Z,22.14
2022-08-26T19:31:01.065Z,22.09
2022-08-26T19:33:29.059Z,22.08
2022-08-26T19:35:56.900Z,22.01
2022-08-26T19:38:24.753Z,21.92
2022-08-26T19:40:55.670Z,21.85
2022-08-26T19:43:24.880Z,21.80
2022-08-26T19:45:53.173Z,21.76
2022-08-26T19:48:21.127Z,21.71
2022-08-26T19:50:49.492Z,21.67
2022-08-26T19:53:17.329Z,21.61
2022-08-26T19:55:45.172Z,21.56
2022-08-26T19:58:12.968Z,21.56
2022-08-26T20:00:42.840Z,21.60
2022-08-26T20:03:15.822Z,21.57
2022-08-26T20:05:43.928Z,21.54
2022-08-26T20:08:16.783Z,21.53
2022-08-26T20:10:50.802Z,21.48
2022-08-26T20:13:19.019Z,21.50
2022-08-26T20:15:48.292Z,21.56
2022-08-26T20:18:30.001Z,21.61
2022-08-26T20:21:15.804Z,21.65
2022-08-26T20:23:44.068Z,21.68
2022-08-26T20:26:11.957Z,21.71
2022-08-26T20:28:39.832Z,21.63
2022-08-26T20:33:46.011Z,21.55
2022-08-26T20:36:14.971Z,21.47
2022-08-26T20:38:43.047Z,21.40
2022-08-26T20:41:11.064Z,21.41
2022-08-26T20:43:38.905Z,21.45
2022-08-26T20:46:10.571Z,21.35
2022-08-26T20:48:46.953Z,21.29
2022-08-26T20:51:15.204Z,21.25
2022-08-26T20:53:44.252Z,21.27
2022-08-26T20:56:13.595Z,21.23
2022-08-26T20:58:42.023Z,21.21
2022-08-26T21:01:18.982Z,21.13
2022-08-26T21:03:48.478Z,20.99
2022-08-26T21:06:16.372Z,20.94
2022-08-26T21:08:44.877Z,20.93
2022-08-26T21:11:12.907Z,20.89
2022-08-26T21:14:03.540Z,20.95
2022-08-26T21:16:31.320Z,20.97
2022-08-26T21:19:00.531Z,20.89
2022-08-26T21:21:28.518Z,20.87
2022-08-26T21:23:56.477Z,20.87
2022-08-26T21:26:24.878Z,20.90
2022-08-26T21:28:52.757Z,20.96
2022-08-26T21:31:24.805Z,20.98
2022-08-26T21:33:54.269Z,21.04
2022-08-26T21:36:22.152Z,20.98
2022-08-26T21:38:50.167Z,20.97
2022-08-26T21:41:20.843Z,20.93
2022-08-26T21:43:50.079Z,20.93
2022-08-26T21:46:21.903Z,20.90
2022-08-26T21:48:51.294Z,20.90
2022-08-26T21:51:23.228Z,20.94
2022-08-26T21:53:52.752Z,20.92
2022-08-26T21:56:21.725Z,20.92
2022-08-26T21:58:49.982Z,20.87
2022-08-26T22:01:22.359Z,20.85
2022-08-26T22:03:52.614Z,20.87
2022-08-26T22:06:23.228Z,20.88
2022-08-26T22:08:51.511Z,20.86
2022-08-26T22:11:19.698Z,20.87
2022-08-26T22:13:48.608Z,20.86
2022-08-26T22:16:16.709Z,20.83
2022-08-26T22:18:45.869Z,20.81
2022-08-26T22:21:15.277Z,20.71
2022-08-26T22:23:44.902Z,20.65
2022-08-26T22:26:15.170Z,20.66
2022-08-26T22:28:51.222Z,20.66
2022-08-26T22:31:35.309Z,20.70
2022-08-26T22:34:07.536Z,20.72
2022-08-26T22:36:36.076Z,20.69
2022-08-26T22:39:12.996Z,20.67
2022-08-26T22:41:43.273Z,20.66
2022-08-26T22:44:11.713Z,20.73
2022-08-26T22:46:39.872Z,20.74
2022-08-26T22:49:09.530Z,20.76
2022-08-26T22:51:37.473Z,20.79
2022-08-26T22:54:05.871Z,20.80
2022-08-26T22:56:35.474Z,20.83
2022-08-26T22:59:04.137Z,20.86
2022-08-26T23:01:32.110Z,20.92
2022-08-26T23:04:00.022Z,20.80
2022-08-26T23:06:27.918Z,20.79
2022-08-26T23:08:55.799Z,20.68
2022-08-26T23:11:23.592Z,20.60
2022-08-26T23:13:52.815Z,20.57
2022-08-26T23:16:21.139Z,20.57
2022-08-26T23:18:49.022Z,20.58
2022-08-26T23:21:19.116Z,20.58
2022-08-26T23:23:52.695Z,20.53
2022-08-26T23:26:22.220Z,20.51
2022-08-26T23:28:55.452Z,20.53
2022-08-26T23:31:47.377Z,20.45
2022-08-26T23:34:35.139Z,20.43
2022-08-26T23:37:12.431Z,20.43
2022-08-26T23:42:49.267Z,20.42
2022-08-26T23:48:36.602Z,20.43
2022-08-26T23:51:54.909Z,20.47
2022-08-26T23:54:37.085Z,20.44
2022-08-26T23:57:11.579Z,20.47
2022-08-26T23:59:39.657Z,20.52
